createdAt,value
2022-12-29T00:00:51.949Z,101837.31
2022-12-29T00:01:55.842Z,101841.13
2022-12-29T00:02:59.032Z,101835.02
2022-12-29T00:04:02.599Z,101830.61
2022-12-29T00:05:06.620Z,101828.94
2022-12-29T00:06:09.855Z,101831.62
2022-12-29T00:07:12.953Z,101836.27
2022-12-29T00:08:15.915Z,101828.31
2022-12-29T00:09:18.998Z,101828.47
2022-12-29T00:10:22.374Z,101836.54
2022-12-29T00:11:27.771Z,101835.80
2022-12-29T00:12:32.613Z,101831.40
2022-12-29T00:13:54.206Z,101828.71
2022-12-29T00:15:15.812Z,101835.06
2022-12-29T00:16:20.910Z,101835.34
2022-12-29T00:17:24.021Z,101835.58
2022-12-29T00:18:28.022Z,101835.73
2022-12-29T00:19:49.653Z,101836.70
2022-12-29T00:21:14.294Z,101839.39
2022-12-29T00:22:36.451Z,101832.42
2022-12-29T00:23:58.031Z,101836.09
2022-12-29T00:25:20.122Z,101836.23
2022-12-29T00:26:41.453Z,101835.38
2022-12-29T00:28:07.188Z,101834.52
2022-12-29T00:29:27.053Z,101828.41
2022-12-29T00:30:48.727Z,101838.31
2022-12-29T00:32:09.998Z,101834.77
2022-12-29T00:33:33.945Z,101834.91
2022-12-29T00:34:55.640Z,101840.41
2022-12-29T00:37:12.906Z,101837.95
2022-12-29T00:38:34.207Z,101839.83
2022-12-29T00:39:55.917Z,101831.76
2022-12-29T00:41:17.127Z,101836.28
2022-12-29T00:42:39.221Z,101836.28
2022-12-29T00:44:00.793Z,101834.56
2022-12-29T00:45:04.687Z,101828.33
2022-12-29T00:46:08.018Z,101831.14
2022-12-29T00:47:11.227Z,101824.91
2022-12-29T00:48:14.337Z,101831.14
2022-12-29T00:49:32.367Z,101830.28
2022-12-29T00:50:35.607Z,101829.30
2022-12-29T00:51:38.634Z,101835.54
2022-12-29T00:52:41.765Z,101832.11
2022-12-29T00:53:44.840Z,101831.14
2022-12-29T00:54:48.109Z,101832.11
2022-12-29T00:55:51.253Z,101829.42
2022-12-29T00:56:54.542Z,101835.81
2022-12-29T00:57:58.773Z,101838.50
2022-12-29T00:59:06.910Z,101834.95
2022-12-29T01:00:11.391Z,101842.16
2022-12-29T01:01:14.570Z,101839.47
2022-12-29T01:02:17.864Z,101837.64
2022-12-29T01:03:22.889Z,101842.16
2022-12-29T01:04:26.586Z,101838.50
2022-12-29T01:05:29.614Z,101849.25
2022-12-29T01:06:34.068Z,101848.39
2022-12-29T01:07:37.134Z,101852.91
2022-12-29T01:08:40.391Z,101847.54
2022-12-29T01:10:01.783Z,101848.39
2022-12-29T01:11:07.522Z,101844.73
2022-12-29T01:12:10.773Z,101848.24
2022-12-29T01:13:13.965Z,101853.77
2022-12-29T01:14:17.977Z,101852.80
2022-12-29T01:15:21.279Z,101850.11
2022-12-29T01:16:25.117Z,101855.34
2022-12-29T01:17:28.252Z,101853.63
2022-12-29T01:18:32.102Z,101851.79
2022-12-29T01:19:35.845Z,101860.86
2022-12-29T01:20:39.020Z,101853.63
2022-12-29T01:21:42.345Z,101853.77
2022-12-29T01:22:45.428Z,101852.06
2022-12-29T01:23:48.549Z,101852.91
2022-12-29T01:24:51.843Z,101850.23
2022-12-29T01:25:54.998Z,101853.77
2022-12-29T01:26:58.164Z,101857.31
2022-12-29T01:28:01.234Z,101852.17
2022-12-29T01:29:04.493Z,101853.15
2022-12-29T01:30:08.627Z,101856.84
2022-12-29T01:31:13.352Z,101859.77
2022-12-29T01:32:17.232Z,101857.19
2022-12-29T01:33:21.337Z,101856.72
2022-12-29T01:34:24.476Z,101864.94
2022-12-29T01:35:28.085Z,101866.99
2022-12-29T01:36:31.526Z,101859.31
2022-12-29T01:37:34.991Z,101859.42
2022-12-29T01:38:39.525Z,101863.23
2022-12-29T01:39:42.730Z,101855.41
2022-12-29T01:40:48.002Z,101862.76
2022-12-29T01:41:51.053Z,101859.33
2022-12-29T01:42:54.300Z,101866.65
2022-12-29T01:44:01.037Z,101866.80
2022-12-29T01:45:10.525Z,101865.94
2022-12-29T01:46:34.249Z,101868.73
2022-12-29T01:47:43.770Z,101865.31
2022-12-29T01:48:49.937Z,101863.73
2022-12-29T01:49:56.618Z,101866.43
2022-12-29T01:50:59.819Z,101865.69
2022-12-29T01:52:06.531Z,101864.83
2022-12-29T01:53:28.806Z,101866.80
2022-12-29T01:54:35.656Z,101874.86
2022-12-29T01:55:45.166Z,101877.55
2022-12-29T01:56:49.681Z,101872.17
2022-12-29T01:57:55.521Z,101878.41
2022-12-29T01:59:04.953Z,101873.14
2022-12-29T02:00:12.010Z,101878.41
2022-12-29T02:01:20.582Z,101881.09
2022-12-29T02:02:25.350Z,101885.72
2022-12-29T02:03:32.727Z,101876.92
2022-12-29T02:04:39.467Z,101879.75
2022-12-29T02:05:48.938Z,101878.89
2022-12-29T02:06:55.896Z,101872.66
2022-12-29T02:08:00.959Z,101882.55
2022-12-29T02:09:04.101Z,101889.64
2022-12-29T02:10:08.038Z,101884.27
2022-12-29T02:11:11.873Z,101881.58
2022-12-29T02:12:15.519Z,101884.13
2022-12-29T02:13:20.491Z,101883.30
2022-12-29T02:14:23.748Z,101888.78
2022-12-29T02:15:36.114Z,101888.78
2022-12-29T02:17:04.034Z,101883.30
2022-12-29T02:18:28.893Z,101886.80
2022-12-29T02:20:07.338Z,101884.13
2022-12-29T02:21:13.995Z,101887.66
2022-12-29T02:22:30.526Z,101894.86
2022-12-29T02:23:58.390Z,101898.41
2022-12-29T02:25:23.115Z,101895.72
2022-12-29T02:26:32.959Z,101896.47
2022-12-29T02:27:56.023Z,101905.38
2022-12-29T02:29:24.068Z,101901.84
2022-12-29T02:30:42.670Z,101900.98
2022-12-29T02:32:08.971Z,101905.50
2022-12-29T02:33:21.702Z,101909.04
2022-12-29T02:34:43.101Z,101904.64
2022-12-29T02:35:58.889Z,101903.78
2022-12-29T02:37:27.533Z,101909.30
2022-12-29T02:38:49.009Z,101910.98
2022-12-29T02:41:27.601Z,101909.53
2022-12-29T02:42:52.508Z,101908.81
2022-12-29T02:43:59.106Z,101921.23
2022-12-29T02:45:05.817Z,101917.70
2022-12-29T02:46:19.022Z,101922.09
2022-12-29T02:47:25.748Z,101917.58
2022-12-29T02:48:32.450Z,101923.59
2022-12-29T02:49:39.188Z,101926.13
2022-12-29T02:50:46.896Z,101920.53
2022-12-29T02:51:59.915Z,101930.16
2022-12-29T02:53:09.667Z,101928.22
2022-12-29T02:54:31.081Z,101927.96
2022-12-29T02:55:34.393Z,101924.30
2022-12-29T02:56:37.687Z,101932.25
2022-12-29T02:57:40.865Z,101931.28
2022-12-29T02:58:44.086Z,101931.13
2022-12-29T02:59:50.629Z,101928.33
2022-12-29T03:01:18.441Z,101930.80
2022-12-29T03:02:51.324Z,101931.50
2022-12-29T03:04:10.936Z,101932.13
2022-12-29T03:05:20.903Z,101926.61
2022-12-29T03:06:36.695Z,101936.39
2022-12-29T03:08:17.939Z,101928.22
2022-12-29T03:09:33.267Z,101930.91
2022-12-29T03:10:44.704Z,101938.97
2022-12-29T03:12:09.021Z,101929.08
2022-12-29T03:13:48.602Z,101925.53
2022-12-29T03:15:19.565Z,101929.30
2022-12-29T03:16:27.244Z,101932.99
2022-12-29T03:17:43.108Z,101930.42
2022-12-29T03:18:52.718Z,101937.02
2022-12-29T03:20:02.494Z,101930.91
2022-12-29T03:21:13.355Z,101932.73
2022-12-29T03:22:27.949Z,101933.59
2022-12-29T03:23:37.802Z,101935.31
2022-12-29T03:24:55.459Z,101930.65
2022-12-29T03:26:02.164Z,101935.05
2022-12-29T03:27:08.719Z,101932.25
2022-12-29T03:28:20.056Z,101934.83
2022-12-29T03:29:24.972Z,101935.69
2022-12-29T03:30:29.985Z,101935.53
2022-12-29T03:31:37.035Z,101931.76
2022-12-29T03:32:46.738Z,101932.47
2022-12-29T03:33:52.049Z,101936.02
2022-12-29T03:34:56.163Z,101934.19
2022-12-29T03:36:03.148Z,101943.97
2022-12-29T03:37:12.889Z,101945.69
2022-12-29T03:38:19.545Z,101948.26
2022-12-29T03:39:24.451Z,101950.80
2022-12-29T03:40:29.149Z,101945.30
2022-12-29T03:41:34.157Z,101941.64
2022-12-29T03:42:40.247Z,101943.36
2022-12-29T03:43:44.257Z,101941.53
2022-12-29T03:44:47.639Z,101947.73
2022-12-29T03:45:51.239Z,101939.67
2022-12-29T03:46:54.676Z,101945.05
2022-12-29T03:47:57.778Z,101938.84
2022-12-29T03:49:01.032Z,101945.05
2022-12-29T03:50:04.628Z,101941.53
2022-12-29T03:51:08.446Z,101944.07
2022-12-29T03:52:11.519Z,101945.91
2022-12-29T03:53:16.599Z,101946.77
2022-12-29T03:54:20.032Z,101946.65
2022-12-29T03:55:23.133Z,101951.05
2022-12-29T03:56:26.424Z,101941.16
2022-12-29T03:57:29.704Z,101945.56
2022-12-29T03:58:35.273Z,101942.88
2022-12-29T03:59:43.235Z,101948.09
2022-12-29T04:00:47.315Z,101951.65
2022-12-29T04:01:50.630Z,101949.70
2022-12-29T04:02:54.084Z,101948.73
2022-12-29T04:03:57.832Z,101949.44
2022-12-29T04:05:01.032Z,101963.62
2022-12-29T04:06:04.211Z,101960.82
2022-12-29T04:07:09.302Z,101962.50
2022-12-29T04:08:12.469Z,101959.81
2022-12-29T04:09:15.630Z,101955.30
2022-12-29T04:10:22.644Z,101956.03
2022-12-29T04:11:32.895Z,101959.70
2022-12-29T04:12:32.663Z,101963.98
2022-12-29T04:13:36.373Z,101962.87
2022-12-29T04:14:39.558Z,101964.47
2022-12-29T04:15:44.300Z,101969.58
2022-12-29T04:16:47.648Z,101967.75
2022-12-29T04:17:50.860Z,101967.63
2022-12-29T04:18:53.905Z,101958.44
2022-12-29T04:19:58.950Z,101956.49
2022-12-29T04:21:03.028Z,101961.02
2022-12-29T04:22:07.195Z,101960.16
2022-12-29T04:23:10.785Z,101958.44
2022-12-29T04:24:14.703Z,101958.44
2022-12-29T04:25:18.187Z,101959.30
2022-12-29T04:26:22.356Z,101959.30
2022-12-29T04:27:36.092Z,101959.18
2022-12-29T04:28:41.005Z,101948.30
2022-12-29T04:29:46.270Z,101956.26
2022-12-29T04:30:57.693Z,101955.99
2022-12-29T04:32:02.650Z,101959.54
2022-12-29T04:33:07.187Z,101962.97
2022-12-29T04:34:10.721Z,101962.82
2022-12-29T04:35:14.517Z,101964.53
2022-12-29T04:36:18.764Z,101962.59
2022-12-29T04:37:22.122Z,101961.73
2022-12-29T04:38:25.580Z,101971.52
2022-12-29T04:39:28.835Z,101957.91
2022-12-29T04:40:32.113Z,101955.22
2022-12-29T04:41:35.275Z,101958.77
2022-12-29T04:42:39.191Z,101957.80
2022-12-29T04:43:43.460Z,101961.47
2022-12-29T04:45:05.132Z,101959.63
2022-12-29T04:46:10.228Z,101951.56
2022-12-29T04:47:15.175Z,101958.77
2022-12-29T04:48:20.219Z,101956.94
2022-12-29T04:49:31.323Z,101950.58
2022-12-29T04:50:39.935Z,101951.32
2022-12-29T04:51:54.033Z,101955.84
2022-12-29T04:52:57.184Z,101948.48
2022-12-29T04:54:00.663Z,101952.89
2022-12-29T04:55:05.489Z,101943.95
2022-12-29T04:56:09.559Z,101955.46
2022-12-29T04:57:12.633Z,101951.80
2022-12-29T04:58:22.243Z,101945.41
2022-12-29T04:59:21.023Z,101944.42
2022-12-29T05:00:25.919Z,101947.86
2022-12-29T05:01:29.564Z,101946.88
2022-12-29T05:02:34.616Z,101945.91
2022-12-29T05:03:37.845Z,101950.28
2022-12-29T05:04:41.143Z,101954.69
2022-12-29T05:05:44.207Z,101956.52
2022-12-29T05:06:48.428Z,101949.30
2022-12-29T05:07:52.502Z,101944.78
2022-12-29T05:08:55.668Z,101947.47
2022-12-29T05:09:58.841Z,101954.56
2022-12-29T05:11:02.845Z,101945.63
2022-12-29T05:12:06.827Z,101943.80
2022-12-29T05:13:12.650Z,101946.49
2022-12-29T05:14:16.029Z,101939.27
2022-12-29T05:15:19.789Z,101944.39
2022-12-29T05:16:23.563Z,101941.70
2022-12-29T05:17:27.386Z,101938.03
2022-12-29T05:18:30.618Z,101942.31
2022-12-29T05:19:35.114Z,101940.33
2022-12-29T05:20:38.477Z,101935.80
2022-12-29T05:21:41.750Z,101942.90
2022-12-29T05:22:44.883Z,101944.61
2022-12-29T05:23:48.038Z,101943.64
2022-12-29T05:24:51.501Z,101942.78
2022-12-29T10:14:31.135Z,101922.16
2022-12-29T10:16:08.404Z,101924.29
2022-12-29T10:17:21.216Z,101920.77
2022-12-29T10:18:42.615Z,101916.95
2022-12-29T10:19:55.372Z,101916.66
2022-12-29T10:21:08.092Z,101920.94
2022-12-29T10:22:29.952Z,101919.80
2022-12-29T10:23:45.603Z,101915.13
2022-12-29T10:24:51.790Z,101919.25
2022-12-29T10:25:58.761Z,101927.78
2022-12-29T10:27:02.739Z,101922.00
2022-12-29T10:28:26.429Z,101922.43
2022-12-29T10:29:36.101Z,101921.02
2022-12-29T10:30:40.886Z,101918.88
2022-12-29T10:31:53.644Z,101920.47
2022-12-29T10:32:59.541Z,101931.09
2022-12-29T10:34:06.252Z,101925.57
2022-12-29T10:35:18.732Z,101921.88
2022-12-29T10:36:34.617Z,101918.33
2022-12-29T10:37:56.464Z,101925.44
2022-12-29T10:39:06.161Z,101923.73
2022-12-29T10:40:25.056Z,101928.14
2022-12-29T10:41:31.759Z,101926.13
2022-12-29T10:42:44.389Z,101926.13
2022-12-29T10:43:50.725Z,101921.33
2022-12-29T10:44:58.019Z,101926.72
2022-12-29T10:46:08.058Z,101925.58
2022-12-29T10:47:14.816Z,101931.70
2022-12-29T10:48:32.117Z,101931.41
2022-12-29T10:49:39.010Z,101929.13
2022-12-29T10:50:43.414Z,101925.17
2022-12-29T10:54:04.773Z,101929.16
2022-12-29T10:55:32.737Z,101927.02
2022-12-29T10:56:58.823Z,101915.36
2022-12-29T10:58:05.303Z,101925.17
2022-12-29T10:59:24.353Z,101914.64
2022-12-29T11:00:27.740Z,101912.10
2022-12-29T11:01:34.564Z,101918.49
2022-12-29T11:03:03.196Z,101914.08
2022-12-29T11:04:13.889Z,101908.81
2022-12-29T11:05:24.597Z,101908.68
2022-12-29T11:06:32.993Z,101907.69
2022-12-29T11:07:37.727Z,101909.23
2022-12-29T11:08:45.081Z,101905.55
2022-12-29T11:09:51.481Z,101908.97
2022-12-29T11:11:01.465Z,101898.89
2022-12-29T11:12:25.973Z,101901.30
2022-12-29T11:13:38.554Z,101888.64
2022-12-29T11:14:39.811Z,101893.91
2022-12-29T11:15:49.641Z,101885.64
2022-12-29T11:17:02.596Z,101888.20
2022-12-29T11:18:07.912Z,101887.08
2022-12-29T11:19:22.548Z,101884.08
2022-12-29T11:20:35.620Z,101883.95
2022-12-29T11:21:44.608Z,101882.95
2022-12-29T11:22:48.478Z,101879.23
2022-12-29T11:24:01.409Z,101878.96
2022-12-29T11:25:10.988Z,101877.80
2022-12-29T11:26:26.439Z,101885.64
2022-12-29T11:27:30.179Z,101886.48
2022-12-29T11:28:33.833Z,101888.20
2022-12-29T11:29:41.861Z,101892.75
2022-12-29T11:30:45.218Z,101888.34
2022-12-29T11:31:56.122Z,101886.63
2022-12-29T11:33:01.429Z,101878.52
2022-12-29T11:34:07.771Z,101883.92
2022-12-29T11:35:17.261Z,101876.81
2022-12-29T11:36:25.050Z,101875.95
2022-12-29T11:37:41.160Z,101885.91
2022-12-29T11:38:47.846Z,101880.50
2022-12-29T11:40:08.147Z,101879.68
2022-12-29T11:41:18.606Z,101877.25
2022-12-29T11:42:26.407Z,101880.94
2022-12-29T11:43:35.994Z,101878.41
2022-12-29T11:44:43.607Z,101880.25
2022-12-29T11:45:48.032Z,101868.59
2022-12-29T11:46:53.779Z,101881.25
2022-12-29T11:48:02.923Z,101874.85
2022-12-29T11:49:11.033Z,101876.70
2022-12-29T11:50:22.413Z,101881.11
2022-12-29T11:51:32.134Z,101879.40
2022-12-29T11:52:39.646Z,101879.40
2022-12-29T11:53:47.710Z,101875.71
2022-12-29T11:54:53.119Z,101876.39
2022-12-29T11:56:02.580Z,101883.38
2022-12-29T11:57:13.752Z,101879.52
2022-12-29T11:58:17.377Z,101873.12
2022-12-29T11:59:40.901Z,101874.70
2022-12-29T12:00:46.904Z,101872.68
2022-12-29T12:01:51.804Z,101875.11
2022-12-29T12:03:02.909Z,101873.39
2022-12-29T12:04:13.492Z,101871.69
2022-12-29T12:05:29.283Z,101882.36
2022-12-29T12:06:36.946Z,101875.96
2022-12-29T12:07:46.071Z,101878.50
2022-12-29T12:08:58.675Z,101878.50
2022-12-29T12:10:08.071Z,101883.90
2022-12-29T12:11:20.432Z,101869.53
2022-12-29T12:12:42.173Z,101878.50
2022-12-29T12:14:03.836Z,101877.64
2022-12-29T12:15:12.705Z,101869.70
2022-12-29T12:16:24.356Z,101880.64
2022-12-29T12:17:38.934Z,101871.83
2022-12-29T12:18:48.398Z,101877.39
2022-12-29T12:20:07.622Z,101873.84
2022-12-29T12:21:23.537Z,101879.38
2022-12-29T12:22:39.253Z,101871.27
2022-12-29T12:24:10.044Z,101869.42
2022-12-29T12:25:20.828Z,101871.14
2022-12-29T12:26:25.519Z,101877.39
2022-12-29T12:27:41.113Z,101880.09
2022-12-29T12:28:57.381Z,101875.69
2022-12-29T12:30:04.217Z,101881.22
2022-12-29T12:31:14.112Z,101882.21
2022-12-29T12:32:32.614Z,101874.11
2022-12-29T12:33:42.052Z,101883.06
2022-12-29T12:34:47.655Z,101874.97
2022-12-29T12:35:57.398Z,101874.11
2022-12-29T12:37:16.255Z,101878.66
2022-12-29T12:38:29.359Z,101876.98
2022-12-29T12:39:36.097Z,101875.41
2022-12-29T12:40:42.965Z,101877.39
2022-12-29T12:42:20.248Z,101878.55
2022-12-29T12:43:43.514Z,101874.27
2022-12-29T12:45:12.342Z,101883.66
2022-12-29T12:46:39.634Z,101880.41
2022-12-29T12:48:06.172Z,101880.81
2022-12-29T12:49:32.569Z,101875.72
2022-12-29T12:51:10.834Z,101874.99
2022-12-29T12:52:32.489Z,101877.14
2022-12-29T12:53:48.017Z,101874.88
2022-12-29T12:55:14.178Z,101877.84
2022-12-29T12:56:21.173Z,101871.75
2022-12-29T12:57:39.587Z,101876.42
2022-12-29T12:58:55.121Z,101875.70
2022-12-29T13:00:07.831Z,101872.18
2022-12-29T13:01:26.943Z,101868.63
2022-12-29T13:02:56.383Z,101872.31
2022-12-29T13:04:06.308Z,101866.06
2022-12-29T13:05:32.331Z,101870.60
2022-12-29T13:06:42.313Z,101874.16
2022-12-29T13:07:54.969Z,101864.34
2022-12-29T13:09:13.566Z,101869.88
2022-12-29T13:10:53.543Z,101866.36
2022-12-29T13:12:18.722Z,101867.18
2022-12-29T13:13:48.248Z,101872.58
2022-12-29T13:14:54.993Z,101876.30
2022-12-29T13:16:01.835Z,101873.73
2022-12-29T13:17:33.028Z,101878.27
2022-12-29T13:18:40.478Z,101883.80
2022-12-29T13:19:52.979Z,101881.27
2022-12-29T13:21:05.584Z,101874.42
2022-12-29T13:22:15.408Z,101872.02
2022-12-29T13:23:23.486Z,101877.68
2022-12-29T13:24:48.516Z,101881.41
2022-12-29T13:25:55.268Z,101872.58
2022-12-29T13:27:02.385Z,101869.16
2022-12-29T13:28:33.334Z,101880.80
2022-12-29T13:29:42.811Z,101876.40
2022-12-29T13:30:52.610Z,101875.70
2022-12-29T13:32:02.302Z,101873.01
2022-12-29T13:33:36.275Z,101873.14
2022-12-29T13:35:14.140Z,101881.23
2022-12-29T13:37:40.590Z,101873.01
2022-12-29T13:38:50.332Z,101886.50
2022-12-29T13:39:57.076Z,101877.55
2022-12-29T13:41:06.800Z,101880.12
2022-12-29T13:42:11.343Z,101875.41
2022-12-29T13:43:16.602Z,101872.45
2022-12-29T13:44:26.253Z,101883.08
2022-12-29T13:45:32.699Z,101876.70
2022-12-29T13:46:39.552Z,101880.12
2022-12-29T13:47:55.917Z,101873.57
2022-12-29T13:49:11.840Z,101874.29
2022-12-29T13:50:18.618Z,101882.09
2022-12-29T13:51:27.620Z,101881.95
2022-12-29T13:52:38.283Z,101876.43
2022-12-29T13:53:57.135Z,101879.85
2022-12-29T13:55:09.933Z,101878.83
2022-12-29T13:56:24.380Z,101874.28
2022-12-29T13:57:33.924Z,101878.56
2022-12-29T13:58:40.723Z,101883.80
2022-12-29T13:59:53.346Z,101877.41
2022-12-29T14:01:06.083Z,101887.09
2022-12-29T14:02:15.898Z,101885.94
2022-12-29T14:03:28.256Z,101886.66
2022-12-29T14:04:30.312Z,101885.80
2022-12-29T14:05:33.910Z,101889.22
2022-12-29T14:06:41.146Z,101880.95
2022-12-29T14:07:44.829Z,101880.14
2022-12-29T14:08:49.177Z,101883.66
2022-12-29T14:09:55.339Z,101883.66
2022-12-29T14:11:02.728Z,101881.81
2022-12-29T14:12:26.068Z,101879.84
2022-12-29T14:13:29.062Z,101880.56
2022-12-29T14:14:32.772Z,101873.31
2022-12-29T14:15:44.583Z,101873.31
2022-12-29T14:16:48.506Z,101869.59
2022-12-29T14:18:06.668Z,101869.45
2022-12-29T14:19:22.504Z,101864.91
2022-12-29T14:20:25.865Z,101864.91
2022-12-29T14:21:30.232Z,101866.75
2022-12-29T14:22:33.652Z,101864.19
2022-12-29T14:23:42.313Z,101868.73
2022-12-29T14:24:46.806Z,101866.03
2022-12-29T14:26:11.826Z,101859.81
2022-12-29T14:27:18.587Z,101865.21
2022-12-29T14:28:27.614Z,101864.19
2022-12-29T14:29:34.458Z,101867.91
2022-12-29T14:30:52.457Z,101873.31
2022-12-29T14:31:56.104Z,101871.60
2022-12-29T14:33:05.009Z,101870.87
2022-12-29T14:34:11.777Z,101866.47
2022-12-29T14:35:39.904Z,101878.26
2022-12-29T14:36:57.077Z,101864.92
2022-12-29T14:38:08.445Z,101877.56
2022-12-29T14:39:31.510Z,101876.84
2022-12-29T14:40:35.248Z,101877.84
2022-12-29T14:41:42.033Z,101872.60
2022-12-29T14:42:49.056Z,101875.30
2022-12-29T14:43:55.229Z,101869.91
2022-12-29T14:45:11.086Z,101867.20
2022-12-29T14:46:14.426Z,101862.66
2022-12-29T14:47:30.045Z,101865.36
2022-12-29T14:48:42.561Z,101866.19
2022-12-29T14:49:46.505Z,101869.73
2022-12-29T14:50:49.759Z,101867.04
2022-12-29T14:51:55.744Z,101867.04
2022-12-29T14:53:03.964Z,101868.88
2022-12-29T14:54:41.207Z,101871.58
2022-12-29T14:55:47.875Z,101876.98
2022-12-29T14:56:51.441Z,101879.98
2022-12-29T14:59:12.047Z,101877.27
2022-12-29T15:00:19.013Z,101878.27
2022-12-29T15:01:28.684Z,101883.67
2022-12-29T15:02:35.578Z,101886.50
2022-12-29T15:03:50.692Z,101883.11
2022-12-29T15:04:57.333Z,101883.97
2022-12-29T15:06:09.799Z,101881.27
2022-12-29T15:07:12.561Z,101887.52
2022-12-29T15:08:19.131Z,101889.20
2022-12-29T15:09:46.923Z,101892.75
2022-12-29T15:11:08.563Z,101880.83
2022-12-29T15:12:21.718Z,101889.92
2022-12-29T15:13:36.951Z,101891.77
2022-12-29T15:14:43.755Z,101879.26
2022-12-29T15:15:46.986Z,101874.72
2022-12-29T15:16:50.184Z,101885.52
2022-12-29T15:17:54.109Z,101881.82
2022-12-29T15:18:57.913Z,101884.39
2022-12-29T15:20:04.300Z,101886.23
2022-12-29T15:21:07.655Z,101887.09
2022-12-29T15:22:13.028Z,101884.26
2022-12-29T15:23:17.696Z,101884.09
2022-12-29T15:24:20.983Z,101878.56
2022-12-29T15:25:25.697Z,101883.95
2022-12-29T15:26:41.039Z,101883.95
2022-12-29T15:27:53.638Z,101880.27
2022-12-29T15:28:56.840Z,101879.41
2022-12-29T15:30:03.340Z,101876.72
2022-12-29T15:31:13.038Z,101874.02
2022-12-29T15:32:25.323Z,101872.17
2022-12-29T15:33:29.640Z,101881.13
2022-12-29T15:34:32.717Z,101874.88
2022-12-29T15:35:37.533Z,101874.88
2022-12-29T15:36:41.804Z,101874.88
2022-12-29T15:37:45.077Z,101874.88
2022-12-29T15:38:48.745Z,101874.88
2022-12-29T15:39:53.450Z,101864.07
2022-12-29T15:41:03.262Z,101865.06
2022-12-29T15:42:27.909Z,101859.80
2022-12-29T15:43:46.513Z,101855.38
2022-12-29T15:44:46.013Z,101854.70
2022-12-29T15:45:51.313Z,101859.23
2022-12-29T15:46:54.686Z,101852.98
2022-12-29T15:47:59.845Z,101852.00
2022-12-29T15:49:06.741Z,101853.84
2022-12-29T15:50:16.938Z,101858.38
2022-12-29T15:51:29.683Z,101855.69
2022-12-29T15:52:34.223Z,101857.53
2022-12-29T15:53:37.506Z,101853.28
2022-12-29T15:54:43.366Z,101854.41
2022-12-29T15:55:48.176Z,101851.70
2022-12-29T15:56:51.703Z,101847.30
2022-12-29T15:58:00.354Z,101847.46
2022-12-29T15:59:03.536Z,101845.88
2022-12-29T16:00:26.167Z,101843.32
2022-12-29T16:01:35.433Z,101841.05
2022-12-29T16:02:39.905Z,101844.18
2022-12-29T16:03:44.156Z,101838.91
2022-12-29T19:49:44.494Z,101748.34
2022-12-29T19:51:58.184Z,101751.23
2022-12-29T19:53:05.411Z,101751.95
2022-12-29T19:54:06.307Z,101762.14
2022-12-29T19:55:11.387Z,101750.12
2022-12-29T19:56:15.823Z,101745.30
2022-12-29T19:57:19.821Z,101748.42
2022-12-29T19:58:22.983Z,101752.41
2022-12-29T19:59:26.070Z,101745.05
2022-12-29T20:00:29.998Z,101747.31
2022-12-29T20:01:33.411Z,101743.47
2022-12-29T20:02:37.278Z,101753.00
2022-12-29T20:03:41.424Z,101744.63
2022-12-29T20:04:45.151Z,101748.04
2022-12-29T20:05:50.920Z,101745.05
2022-12-29T20:06:53.990Z,101745.64
2022-12-29T20:07:57.121Z,101743.50
2022-12-29T20:09:02.635Z,101746.75
2022-12-29T20:10:07.599Z,101751.03
2022-12-29T20:11:14.138Z,101750.73
2022-12-29T20:12:19.892Z,101749.61
2022-12-29T20:13:23.202Z,101759.24
2022-12-29T20:14:26.247Z,101755.42
2022-12-29T20:15:29.295Z,101749.90
2022-12-29T20:16:32.834Z,101753.45
2022-12-29T20:18:10.845Z,101750.75
2022-12-29T20:18:41.556Z,101754.14
2022-12-29T20:19:44.691Z,101759.53
2022-12-29T20:20:47.836Z,101759.41
2022-12-29T20:21:51.019Z,101755.55
2022-12-29T20:22:54.391Z,101754.42
2022-12-29T20:23:57.538Z,101747.05
2022-12-29T20:25:34.577Z,101753.30
2022-12-29T20:26:08.283Z,101758.53
2022-12-29T20:27:12.572Z,101755.70
2022-12-29T20:28:16.252Z,101751.87
2022-12-29T20:29:20.349Z,101757.28
2022-12-29T20:30:24.403Z,101749.87
2022-12-29T20:31:30.489Z,101748.87
2022-12-29T20:32:35.135Z,101745.19
2022-12-29T20:33:38.278Z,101749.59
2022-12-29T20:34:42.534Z,101744.20
2022-12-29T20:35:45.696Z,101741.34
2022-12-29T20:36:48.891Z,101737.65
2022-12-29T20:37:52.177Z,101732.11
2022-12-29T20:38:57.176Z,101733.52
2022-12-29T20:40:00.410Z,101730.81
2022-12-29T20:41:04.343Z,101729.83
2022-12-29T20:42:07.619Z,101736.94
2022-12-29T20:43:10.874Z,101733.08
2022-12-29T20:44:14.084Z,101729.52
2022-12-29T20:45:17.280Z,101729.52
2022-12-29T20:46:23.187Z,101727.68
2022-12-29T20:47:26.073Z,101727.68
2022-12-29T20:48:29.755Z,101732.09
2022-12-29T20:49:34.749Z,101727.68
2022-12-29T20:50:37.929Z,101728.53
2022-12-29T20:52:07.548Z,101724.84
2022-12-29T20:52:47.977Z,101731.95
2022-12-29T20:53:51.182Z,101735.50
2022-12-29T20:54:54.358Z,101732.80
2022-12-29T20:56:03.172Z,101740.05
2022-12-29T20:57:06.388Z,101739.20
2022-12-29T20:58:26.050Z,101735.64
2022-12-29T20:59:27.468Z,101737.34
2022-12-29T21:00:22.735Z,101732.80
2022-12-29T21:01:26.673Z,101741.76
2022-12-29T21:02:30.143Z,101734.66
2022-12-29T21:03:33.454Z,101733.66
2022-12-29T21:05:05.597Z,101734.52
2022-12-29T21:05:41.530Z,101740.73
2022-12-29T21:06:44.802Z,101734.52
2022-12-29T21:07:48.345Z,101728.27
2022-12-29T21:08:54.458Z,101735.50
2022-12-29T21:09:57.642Z,101737.34
2022-12-29T21:11:01.334Z,101738.20
2022-12-29T21:12:04.853Z,101733.66
2022-12-29T21:13:08.013Z,101740.73
2022-12-29T21:14:11.262Z,101739.91
2022-12-29T21:15:15.068Z,101738.89
2022-12-29T21:16:20.211Z,101737.90
2022-12-29T21:17:23.425Z,101734.20
2022-12-29T21:18:28.328Z,101734.20
2022-12-29T21:19:31.537Z,101738.62
2022-12-29T21:20:34.858Z,101734.92
2022-12-29T21:21:37.954Z,101733.91
2022-12-29T21:22:41.123Z,101731.06
2022-12-29T21:23:44.666Z,101731.78
2022-12-29T21:24:47.809Z,101733.49
2022-12-29T21:25:52.347Z,101724.37
2022-12-29T21:26:55.454Z,101724.23
2022-12-29T21:27:58.581Z,101732.19
2022-12-29T21:29:02.969Z,101731.34
2022-12-29T21:30:07.175Z,101732.19
2022-12-29T21:31:25.233Z,101730.34
2022-12-29T21:32:28.368Z,101732.19
2022-12-29T21:33:31.493Z,101724.23
2022-12-29T21:34:35.064Z,101724.09
2022-12-29T21:35:38.467Z,101722.38
2022-12-29T21:36:41.669Z,101714.28
2022-12-29T21:37:44.889Z,101719.69
2022-12-29T21:38:48.138Z,101716.98
2022-12-29T21:39:51.101Z,101721.39
2022-12-29T21:40:54.292Z,101716.71
2022-12-29T21:41:59.151Z,101714.83
2022-12-29T21:43:02.397Z,101719.41
2022-12-29T21:44:23.661Z,101722.11
2022-12-29T21:45:27.132Z,101719.41
2022-12-29T21:46:31.552Z,101717.70
2022-12-29T21:47:53.113Z,101721.39
2022-12-29T21:48:56.256Z,101716.13
2022-12-29T21:49:59.321Z,101723.38